sensor_id;sensor_type;location;lat;lon;timestamp;P1;durP1;ratioP1;P2;durP2;ratioP2
34557;SDS011;24708;48.888;8.736;2022-11-15T06:32:29;3.75;;;2.85;;
34557;SDS011;24708;48.888;8.736;2022-11-15T06:34:57;3.03;;;2.25;;
34557;SDS011;24708;48.888;8.736;2022-11-15T06:37:24;7.00;;;3.28;;
34557;SDS011;24708;48.888;8.736;2022-11-15T06:39:51;8.93;;;2.30;;
34557;SDS011;24708;48.888;8.736;2022-11-15T06:42:19;7.32;;;2.60;;
34557;SDS011;24708;48.888;8.736;2022-11-15T06:44:46;4.70;;;2.58;;
34557;SDS011;24708;48.888;8.736;2022-11-15T06:47:13;5.03;;;2.90;;
34557;SDS011;24708;48.888;8.736;2022-11-15T06:49:40;2.47;;;2.28;;
34557;SDS011;24708;48.888;8.736;2022-11-15T06:52:07;2.95;;;2.28;;
34557;SDS011;24708;48.888;8.736;2022-11-15T06:54:35;5.53;;;3.00;;
34557;SDS011;24708;48.888;8.736;2022-11-15T06:57:03;6.90;;;3.08;;
34557;SDS011;24708;48.888;8.736;2022-11-15T06:59:33;3.95;;;2.25;;
34557;SDS011;24708;48.888;8.736;2022-11-15T07:02:06;4.18;;;2.03;;
34557;SDS011;24708;48.888;8.736;2022-11-15T07:04:37;4.07;;;2.90;;
34557;SDS011;24708;48.888;8.736;2022-11-15T07:07:05;9.95;;;2.95;;
34557;SDS011;24708;48.888;8.736;2022-11-15T07:09:32;4.93;;;2.72;;
34557;SDS011;24708;48.888;8.736;2022-11-15T07:12:00;3.72;;;2.30;;
34557;SDS011;24708;48.888;8.736;2022-11-15T07:14:33;3.13;;;2.42;;
34557;SDS011;24708;48.888;8.736;2022-11-15T07:17:03;3.92;;;2.53;;
34557;SDS011;24708;48.888;8.736;2022-11-15T07:19:31;3.25;;;2.30;;
34557;SDS011;24708;48.888;8.736;2022-11-15T07:21:58;7.05;;;2.20;;
34557;SDS011;24708;48.888;8.736;2022-11-15T07:24:26;3.95;;;2.45;;
34557;SDS011;24708;48.888;8.736;2022-11-15T07:26:56;4.65;;;2.65;;
34557;SDS011;24708;48.888;8.736;2022-11-15T07:29:25;6.75;;;2.60;;
34557;SDS011;24708;48.888;8.736;2022-11-15T07:31:52;4.05;;;2.28;;
34557;SDS011;24708;48.888;8.736;2022-11-15T07:34:20;3.00;;;1.95;;
34557;SDS011;24708;48.888;8.736;2022-11-15T07:36:47;3.65;;;2.28;;
34557;SDS011;24708;48.888;8.736;2022-11-15T07:39:14;3.75;;;2.10;;
34557;SDS011;24708;48.888;8.736;2022-11-15T07:41:42;6.35;;;2.38;;
34557;SDS011;24708;48.888;8.736;2022-11-15T07:44:10;3.55;;;2.15;;
34557;SDS011;24708;48.888;8.736;2022-11-15T07:46:38;4.28;;;2.92;;
34557;SDS011;24708;48.888;8.736;2022-11-15T07:49:05;9.93;;;3.35;;
34557;SDS011;24708;48.888;8.736;2022-11-15T07:51:32;5.03;;;2.67;;
34557;SDS011;24708;48.888;8.736;2022-11-15T07:54:00;3.92;;;1.80;;
34557;SDS011;24708;48.888;8.736;2022-11-15T07:56:28;3.00;;;2.13;;
34557;SDS011;24708;48.888;8.736;2022-11-15T07:58:55;4.30;;;2.00;;
34557;SDS011;24708;48.888;8.736;2022-11-15T08:01:24;3.22;;;2.13;;
34557;SDS011;24708;48.888;8.736;2022-11-15T08:03:51;2.70;;;2.13;;
34557;SDS011;24708;48.888;8.736;2022-11-15T08:06:20;2.72;;;2.10;;
34557;SDS011;24708;48.888;8.736;2022-11-15T08:08:48;4.55;;;2.53;;
34557;SDS011;24708;48.888;8.736;2022-11-15T08:11:15;3.25;;;2.38;;
34557;SDS011;24708;48.888;8.736;2022-11-15T08:13:43;2.92;;;1.83;;
34557;SDS011;24708;48.888;8.736;2022-11-15T08:16:10;4.53;;;1.80;;
34557;SDS011;24708;48.888;8.736;2022-11-15T08:18:38;6.35;;;2.20;;
34557;SDS011;24708;48.888;8.736;2022-11-15T08:21:05;4.93;;;2.03;;
34557;SDS011;24708;48.888;8.736;2022-11-15T08:23:44;3.28;;;2.10;;
34557;SDS011;24708;48.888;8.736;2022-11-15T08:26:12;2.72;;;1.80;;
34557;SDS011;24708;48.888;8.736;2022-11-15T08:28:40;2.60;;;2.03;;
34557;SDS011;24708;48.888;8.736;2022-11-15T08:31:12;4.32;;;2.38;;
34557;SDS011;24708;48.888;8.736;2022-11-15T08:33:41;4.43;;;2.80;;
34557;SDS011;24708;48.888;8.736;2022-11-15T08:36:13;3.75;;;2.10;;
34557;SDS011;24708;48.888;8.736;2022-11-15T08:41:23;3.40;;;2.20;;
34557;SDS011;24708;48.888;8.736;2022-11-15T08:44:22;3.05;;;2.10;;
34557;SDS011;24708;48.888;8.736;2022-11-15T08:46:51;2.10;;;1.83;;
34557;SDS011;24708;48.888;8.736;2022-11-15T08:49:21;3.13;;;2.10;;
34557;SDS011;24708;48.888;8.736;2022-11-15T08:51:48;3.03;;;2.08;;
34557;SDS011;24708;48.888;8.736;2022-11-15T08:54:16;5.93;;;2.03;;
34557;SDS011;24708;48.888;8.736;2022-11-15T08:56:46;4.85;;;2.67;;
34557;SDS011;24708;48.888;8.736;2022-11-15T08:59:22;4.05;;;1.73;;
34557;SDS011;24708;48.888;8.736;2022-11-15T09:02:04;2.88;;;1.67;;
34557;SDS011;24708;48.888;8.736;2022-11-15T09:05:06;2.55;;;1.95;;
34557;SDS011;24708;48.888;8.736;2022-11-15T09:07:34;5.00;;;2.30;;
34557;SDS011;24708;48.888;8.736;2022-11-15T09:10:15;3.38;;;1.48;;
34557;SDS011;24708;48.888;8.736;2022-11-15T09:13:32;4.72;;;1.88;;
34557;SDS011;24708;48.888;8.736;2022-11-15T09:16:00;2.95;;;1.55;;
34557;SDS011;24708;48.888;8.736;2022-11-15T09:18:28;11.98;;;4.00;;
34557;SDS011;24708;48.888;8.736;2022-11-15T09:20:58;1.83;;;1.25;;
34557;SDS011;24708;48.888;8.736;2022-11-15T09:23:27;1.92;;;1.30;;
34557;SDS011;24708;48.888;8.736;2022-11-15T09:25:58;3.45;;;1.50;;
34557;SDS011;24708;48.888;8.736;2022-11-15T09:28:28;4.00;;;1.30;;
34557;SDS011;24708;48.888;8.736;2022-11-15T09:30:57;6.40;;;1.95;;
34557;SDS011;24708;48.888;8.736;2022-11-15T09:33:26;7.55;;;1.98;;
34557;SDS011;24708;48.888;8.736;2022-11-15T09:35:54;6.60;;;1.85;;
34557;SDS011;24708;48.888;8.736;2022-11-15T09:38:26;2.27;;;1.30;;
34557;SDS011;24708;48.888;8.736;2022-11-15T09:40:57;3.95;;;1.60;;
34557;SDS011;24708;48.888;8.736;2022-11-15T09:44:02;2.95;;;1.50;;
34557;SDS011;24708;48.888;8.736;2022-11-15T09:46:59;2.33;;;1.42;;
34557;SDS011;24708;48.888;8.736;2022-11-15T09:49:53;2.53;;;1.13;;
34557;SDS011;24708;48.888;8.736;2022-11-15T09:52:25;1.88;;;0.90;;
34557;SDS011;24708;48.888;8.736;2022-11-15T09:54:53;3.15;;;1.23;;
34557;SDS011;24708;48.888;8.736;2022-11-15T10:00:13;3.08;;;1.23;;
34557;SDS011;24708;48.888;8.736;2022-11-15T10:03:16;1.85;;;1.60;;
34557;SDS011;24708;48.888;8.736;2022-11-15T10:05:51;2.83;;;1.40;;
34557;SDS011;24708;48.888;8.736;2022-11-15T10:11:20;2.65;;;1.33;;
34557;SDS011;24708;48.888;8.736;2022-11-15T10:14:16;2.00;;;1.08;;
34557;SDS011;24708;48.888;8.736;2022-11-15T10:16:52;2.05;;;1.08;;
34557;SDS011;24708;48.888;8.736;2022-11-15T10:22:46;5.72;;;1.63;;
34557;SDS011;24708;48.888;8.736;2022-11-15T10:25:25;4.47;;;1.67;;
34557;SDS011;24708;48.888;8.736;2022-11-15T10:27:57;3.47;;;1.75;;
34557;SDS011;24708;48.888;8.736;2022-11-15T10:30:35;3.05;;;1.33;;
34557;SDS011;24708;48.888;8.736;2022-11-15T10:33:10;3.20;;;1.45;;
34557;SDS011;24708;48.888;8.736;2022-11-15T10:36:16;1.42;;;1.00;;
34557;SDS011;24708;48.888;8.736;2022-11-15T10:46:43;4.70;;;1.33;;
34557;SDS011;24708;48.888;8.736;2022-11-15T10:49:20;1.85;;;1.05;;
34557;SDS011;24708;48.888;8.736;2022-11-15T10:52:01;3.17;;;1.10;;
34557;SDS011;24708;48.888;8.736;2022-11-15T10:54:42;2.70;;;1.35;;
34557;SDS011;24708;48.888;8.736;2022-11-15T10:57:32;5.60;;;1.20;;
34557;SDS011;24708;48.888;8.736;2022-11-15T11:00:07;2.33;;;1.27;;
34557;SDS011;24708;48.888;8.736;2022-11-15T11:02:57;2.63;;;1.23;;
34557;SDS011;24708;48.888;8.736;2022-11-15T11:05:30;2.75;;;1.42;;
34557;SDS011;24708;48.888;8.736;2022-11-15T11:10:51;5.60;;;1.80;;
34557;SDS011;24708;48.888;8.736;2022-11-15T11:13:37;7.43;;;3.50;;
34557;SDS011;24708;48.888;8.736;2022-11-15T11:24:44;9.07;;;4.10;;
34557;SDS011;24708;48.888;8.736;2022-11-15T11:27:36;9.38;;;4.07;;
34557;SDS011;24708;48.888;8.736;2022-11-15T11:33:12;5.75;;;3.28;;
34557;SDS011;24708;48.888;8.736;2022-11-15T11:44:43;9.18;;;3.78;;
34557;SDS011;24708;48.888;8.736;2022-11-15T11:47:23;14.27;;;4.90;;
34557;SDS011;24708;48.888;8.736;2022-11-15T11:49:57;10.48;;;3.80;;
34557;SDS011;24708;48.888;8.736;2022-11-15T11:55:21;10.45;;;3.30;;
34557;SDS011;24708;48.888;8.736;2022-11-15T11:57:56;7.72;;;3.25;;
34557;SDS011;24708;48.888;8.736;2022-11-15T12:00:31;10.43;;;3.20;;
34557;SDS011;24708;48.888;8.736;2022-11-15T12:05:54;6.10;;;2.45;;
34557;SDS011;24708;48.888;8.736;2022-11-15T12:08:31;5.90;;;2.67;;
34557;SDS011;24708;48.888;8.736;2022-11-15T12:14:00;7.37;;;2.87;;
34557;SDS011;24708;48.888;8.736;2022-11-15T12:16:31;10.38;;;3.13;;
34557;SDS011;24708;48.888;8.736;2022-11-15T12:19:00;3.95;;;3.00;;
34557;SDS011;24708;48.888;8.736;2022-11-15T12:24:21;6.18;;;2.70;;
34557;SDS011;24708;48.888;8.736;2022-11-15T12:27:14;7.40;;;2.72;;
34557;SDS011;24708;48.888;8.736;2022-11-15T12:29:53;9.00;;;3.63;;
34557;SDS011;24708;48.888;8.736;2022-11-15T12:32:28;16.50;;;3.90;;
34557;SDS011;24708;48.888;8.736;2022-11-15T12:35:00;7.60;;;4.07;;
34557;SDS011;24708;48.888;8.736;2022-11-15T12:37:33;13.60;;;4.07;;
34557;SDS011;24708;48.888;8.736;2022-11-15T12:40:17;8.40;;;3.58;;
34557;SDS011;24708;48.888;8.736;2022-11-15T12:43:33;10.93;;;3.35;;
34557;SDS011;24708;48.888;8.736;2022-11-15T12:45:53;9.80;;;3.60;;
34557;SDS011;24708;48.888;8.736;2022-11-15T12:51:13;15.05;;;3.50;;
34557;SDS011;24708;48.888;8.736;2022-11-15T12:53:41;14.25;;;3.45;;
34557;SDS011;24708;48.888;8.736;2022-11-15T12:58:54;12.90;;;3.67;;
34557;SDS011;24708;48.888;8.736;2022-11-15T13:04:38;8.75;;;3.80;;
34557;SDS011;24708;48.888;8.736;2022-11-15T13:07:00;10.57;;;3.30;;
34557;SDS011;24708;48.888;8.736;2022-11-15T13:12:11;12.10;;;3.33;;
34557;SDS011;24708;48.888;8.736;2022-11-15T13:17:51;3.45;;;2.20;;
34557;SDS011;24708;48.888;8.736;2022-11-15T13:20:23;5.35;;;1.70;;
34557;SDS011;24708;48.888;8.736;2022-11-15T13:23:07;2.88;;;1.50;;
34557;SDS011;24708;48.888;8.736;2022-11-15T13:25:44;4.00;;;1.63;;
34557;SDS011;24708;48.888;8.736;2022-11-15T13:28:33;6.60;;;1.58;;
34557;SDS011;24708;48.888;8.736;2022-11-15T13:31:25;2.60;;;1.52;;
34557;SDS011;24708;48.888;8.736;2022-11-15T13:33:57;4.25;;;1.92;;
34557;SDS011;24708;48.888;8.736;2022-11-15T13:36:29;2.40;;;1.38;;
34557;SDS011;24708;48.888;8.736;2022-11-15T13:39:02;4.05;;;2.30;;
34557;SDS011;24708;48.888;8.736;2022-11-15T13:41:34;4.60;;;1.83;;
34557;SDS011;24708;48.888;8.736;2022-11-15T13:44:03;4.88;;;1.60;;
34557;SDS011;24708;48.888;8.736;2022-11-15T13:46:32;4.55;;;1.60;;
34557;SDS011;24708;48.888;8.736;2022-11-15T13:49:01;2.85;;;1.80;;
34557;SDS011;24708;48.888;8.736;2022-11-15T13:52:04;5.45;;;1.27;;
34557;SDS011;24708;48.888;8.736;2022-11-15T13:54:27;1.70;;;1.05;;
34557;SDS011;24708;48.888;8.736;2022-11-15T13:57:03;2.03;;;1.27;;
34557;SDS011;24708;48.888;8.736;2022-11-15T13:59:34;1.60;;;1.25;;
34557;SDS011;24708;48.888;8.736;2022-11-15T14:02:11;1.42;;;1.00;;
34557;SDS011;24708;48.888;8.736;2022-11-15T14:04:47;1.67;;;0.80;;
34557;SDS011;24708;48.888;8.736;2022-11-15T14:07:19;3.92;;;1.23;;
34557;SDS011;24708;48.888;8.736;2022-11-15T14:09:48;4.40;;;1.70;;
34557;SDS011;24708;48.888;8.736;2022-11-15T14:14:59;4.93;;;1.50;;
34557;SDS011;24708;48.888;8.736;2022-11-15T14:20:41;2.80;;;1.65;;
34557;SDS011;24708;48.888;8.736;2022-11-15T14:22:58;5.47;;;1.73;;
34557;SDS011;24708;48.888;8.736;2022-11-15T14:25:28;3.35;;;1.40;;
34557;SDS011;24708;48.888;8.736;2022-11-15T14:28:15;4.18;;;1.80;;
34557;SDS011;24708;48.888;8.736;2022-11-15T14:30:52;2.25;;;1.33;;
34557;SDS011;24708;48.888;8.736;2022-11-15T14:33:28;2.63;;;1.30;;
34557;SDS011;24708;48.888;8.736;2022-11-15T14:36:11;7.80;;;2.00;;
34557;SDS011;24708;48.888;8.736;2022-11-15T14:38:41;7.35;;;1.38;;
34557;SDS011;24708;48.888;8.736;2022-11-15T14:41:18;2.28;;;1.30;;
34557;SDS011;24708;48.888;8.736;2022-11-15T14:43:47;1.45;;;1.10;;
34557;SDS011;24708;48.888;8.736;2022-11-15T14:46:15;1.98;;;1.40;;
34557;SDS011;24708;48.888;8.736;2022-11-15T14:48:42;2.00;;;1.70;;
34557;SDS011;24708;48.888;8.736;2022-11-15T14:51:11;3.95;;;1.65;;
34557;SDS011;24708;48.888;8.736;2022-11-15T14:53:41;2.78;;;1.27;;
34557;SDS011;24708;48.888;8.736;2022-11-15T14:56:09;5.20;;;1.63;;
34557;SDS011;24708;48.888;8.736;2022-11-15T14:58:37;2.45;;;1.48;;
34557;SDS011;24708;48.888;8.736;2022-11-15T15:01:10;3.38;;;1.63;;
34557;SDS011;24708;48.888;8.736;2022-11-15T15:03:48;7.65;;;2.70;;
34557;SDS011;24708;48.888;8.736;2022-11-15T15:06:15;8.00;;;2.83;;
34557;SDS011;24708;48.888;8.736;2022-11-15T15:08:44;5.07;;;2.60;;
34557;SDS011;24708;48.888;8.736;2022-11-15T15:11:14;3.85;;;1.88;;
34557;SDS011;24708;48.888;8.736;2022-11-15T15:13:45;4.40;;;1.70;;
34557;SDS011;24708;48.888;8.736;2022-11-15T15:16:12;2.33;;;1.58;;
34557;SDS011;24708;48.888;8.736;2022-11-15T15:18:39;2.72;;;2.00;;
34557;SDS011;24708;48.888;8.736;2022-11-15T15:21:23;4.32;;;2.00;;
34557;SDS011;24708;48.888;8.736;2022-11-15T15:23:51;2.67;;;1.63;;
34557;SDS011;24708;48.888;8.736;2022-11-15T15:26:21;6.07;;;2.63;;
34557;SDS011;24708;48.888;8.736;2022-11-15T15:28:49;3.50;;;2.05;;
34557;SDS011;24708;48.888;8.736;2022-11-15T15:31:18;9.07;;;2.00;;
34557;SDS011;24708;48.888;8.736;2022-11-15T15:33:45;3.10;;;1.80;;
34557;SDS011;24708;48.888;8.736;2022-11-15T15:36:13;6.07;;;2.05;;
34557;SDS011;24708;48.888;8.736;2022-11-15T15:38:44;3.50;;;1.77;;
34557;SDS011;24708;48.888;8.736;2022-11-15T15:41:13;4.80;;;2.25;;
34557;SDS011;24708;48.888;8.736;2022-11-15T15:43:41;4.07;;;1.95;;
34557;SDS011;24708;48.888;8.736;2022-11-15T15:46:18;3.80;;;2.20;;
34557;SDS011;24708;48.888;8.736;2022-11-15T15:48:46;4.93;;;2.30;;
34557;SDS011;24708;48.888;8.736;2022-11-15T15:51:13;4.90;;;2.45;;
34557;SDS011;24708;48.888;8.736;2022-11-15T15:53:46;3.40;;;2.00;;
34557;SDS011;24708;48.888;8.736;2022-11-15T15:56:14;4.00;;;2.38;;
34557;SDS011;24708;48.888;8.736;2022-11-15T15:58:41;1.92;;;1.50;;
34557;SDS011;24708;48.888;8.736;2022-11-15T16:01:09;7.32;;;2.25;;
34557;SDS011;24708;48.888;8.736;2022-11-15T16:03:36;6.30;;;1.70;;
34557;SDS011;24708;48.888;8.736;2022-11-15T16:06:03;4.13;;;2.00;;
34557;SDS011;24708;48.888;8.736;2022-11-15T16:08:31;3.90;;;1.90;;
34557;SDS011;24708;48.888;8.736;2022-11-15T16:11:19;4.60;;;2.22;;
34557;SDS011;24708;48.888;8.736;2022-11-15T16:13:46;6.70;;;2.22;;
34557;SDS011;24708;48.888;8.736;2022-11-15T16:16:13;5.00;;;2.15;;
34557;SDS011;24708;48.888;8.736;2022-11-15T16:18:41;9.35;;;2.50;;
34557;SDS011;24708;48.888;8.736;2022-11-15T16:21:08;4.80;;;2.15;;
34557;SDS011;24708;48.888;8.736;2022-11-15T16:23:36;3.10;;;1.90;;
34557;SDS011;24708;48.888;8.736;2022-11-15T16:26:20;4.32;;;2.42;;
34557;SDS011;24708;48.888;8.736;2022-11-15T16:28:48;6.28;;;2.40;;
34557;SDS011;24708;48.888;8.736;2022-11-15T16:31:16;5.63;;;1.90;;
34557;SDS011;24708;48.888;8.736;2022-11-15T16:33:46;3.28;;;2.22;;
34557;SDS011;24708;48.888;8.736;2022-11-15T16:36:22;5.18;;;3.38;;
34557;SDS011;24708;48.888;8.736;2022-11-15T16:38:56;3.97;;;2.17;;
34557;SDS011;24708;48.888;8.736;2022-11-15T16:41:24;4.07;;;2.38;;
34557;SDS011;24708;48.888;8.736;2022-11-15T16:43:52;4.07;;;2.40;;
34557;SDS011;24708;48.888;8.736;2022-11-15T16:46:21;6.47;;;2.50;;
34557;SDS011;24708;48.888;8.736;2022-11-15T16:48:49;5.35;;;3.00;;
34557;SDS011;24708;48.888;8.736;2022-11-15T16:51:17;4.85;;;2.80;;
34557;SDS011;24708;48.888;8.736;2022-11-15T16:53:45;4.43;;;2.60;;
34557;SDS011;24708;48.888;8.736;2022-11-15T16:56:16;3.03;;;2.17;;
34557;SDS011;24708;48.888;8.736;2022-11-15T16:58:46;8.90;;;4.18;;
